Time;durP1;ratioP1;P1;durP2;ratioP2;P2;SDS_P1;SDS_P2;PMS_P1;PMS_P2;Temp;Humidity;BMP_temperature;BMP_pressure;BME280_temperature;BME280_humidity;BME280_pressure;Samples;Min_cycle;Max_cycle;Signal;HPM_P1;HPM_P2
2022/01/31 00:02:23;;;;;;;8.83;2.20;;;8.10;90.10;;;;;;4959526;28;20030;-89
2022/01/31 00:04:48;;;;;;;7.53;2.35;;;8.20;90.00;;;;;;4968543;28;20511;-88
2022/01/31 00:07:14;;;;;;;9.03;2.30;;;8.20;89.50;;;;;;4959421;28;20117;-88
2022/01/31 00:09:42;;;;;;;7.18;1.92;;;8.20;89.70;;;;;;4990002;28;20401;-88
2022/01/31 00:12:11;;;;;;;6.72;2.00;;;8.20;89.90;;;;;;4969881;28;20048;-89
2022/01/31 00:17:05;;;;;;;8.77;2.20;;;8.20;89.90;;;;;;4984086;28;20246;-88
2022/01/31 00:19:31;;;;;;;8.40;2.25;;;8.20;89.50;;;;;;4960365;28;20097;-89
2022/01/31 00:21:56;;;;;;;5.15;1.80;;;8.30;89.70;;;;;;4943100;28;20043;-88
2022/01/31 00:24:22;;;;;;;7.50;2.08;;;8.30;90.00;;;;;;4958631;28;20043;-88
2022/01/31 00:26:48;;;;;;;9.57;2.00;;;8.30;89.70;;;;;;4963681;28;20435;-88
2022/01/31 00:29:14;;;;;;;7.93;2.20;;;8.30;90.00;;;;;;4952326;28;20676;-88
2022/01/31 00:31:39;;;;;;;8.17;2.10;;;8.30;89.10;;;;;;4943470;28;20058;-90
2022/01/31 00:34:06;;;;;;;10.88;2.08;;;8.30;89.60;;;;;;4957143;28;20404;-88
2022/01/31 00:36:31;;;;;;;7.47;2.37;;;8.30;89.60;;;;;;4947043;28;20023;-88
2022/01/31 00:38:57;;;;;;;8.82;1.92;;;8.30;89.40;;;;;;4957157;28;20042;-88
2022/01/31 00:41:22;;;;;;;9.67;2.20;;;8.30;89.20;;;;;;4972884;28;20411;-88
2022/01/31 00:43:59;;;;;;;9.60;2.15;;;8.30;89.50;;;;;;4947308;28;20038;-88
2022/01/31 00:46:36;;;;;;;10.63;2.47;;;8.30;89.50;;;;;;4994884;28;20049;-89
2022/01/31 00:49:02;;;;;;;6.93;1.90;;;8.30;89.20;;;;;;4941713;28;20472;-89
2022/01/31 00:51:28;;;;;;;7.50;1.67;;;8.30;89.70;;;;;;4960693;28;20039;-88
2022/01/31 00:53:53;;;;;;;6.30;1.90;;;8.30;89.80;;;;;;4938757;28;20097;-89
2022/01/31 00:56:19;;;;;;;7.45;1.83;;;8.30;89.70;;;;;;4967077;28;20416;-89
2022/01/31 00:58:45;;;;;;;7.73;1.77;;;8.30;89.30;;;;;;4965320;28;20027;-89
2022/01/31 01:01:10;;;;;;;5.87;1.57;;;8.30;90.00;;;;;;4975388;28;20113;-89
2022/01/31 01:03:36;;;;;;;9.95;1.83;;;8.30;90.00;;;;;;4969335;28;20035;-88
2022/01/31 01:06:02;;;;;;;7.10;1.80;;;8.30;90.00;;;;;;4959753;28;20221;-88
2022/01/31 01:08:27;;;;;;;6.50;1.83;;;8.30;90.00;;;;;;4938666;28;20042;-89
2022/01/31 01:10:53;;;;;;;8.20;2.03;;;8.30;90.10;;;;;;4951702;28;20037;-88
2022/01/31 01:13:18;;;;;;;7.05;1.75;;;8.30;90.00;;;;;;4969707;28;20251;-89
2022/01/31 01:15:44;;;;;;;5.90;1.70;;;8.30;90.00;;;;;;4973979;28;20443;-89
2022/01/31 01:18:10;;;;;;;7.07;1.97;;;8.30;90.20;;;;;;4971447;28;20545;-89
2022/01/31 01:20:35;;;;;;;8.27;1.67;;;8.20;90.10;;;;;;4986469;28;20348;-89
2022/01/31 01:23:01;;;;;;;8.73;2.07;;;8.10;90.20;;;;;;4963526;28;20181;-89
2022/01/31 01:25:27;;;;;;;5.18;1.70;;;8.10;90.30;;;;;;4972329;28;20037;-90
2022/01/31 01:27:54;;;;;;;7.83;1.90;;;8.00;90.40;;;;;;4943939;28;20400;-90
2022/01/31 01:30:20;;;;;;;9.30;2.40;;;8.00;90.60;;;;;;4979426;28;20101;-90
2022/01/31 01:33:01;;;;;;;6.78;1.60;;;8.00;90.70;;;;;;4979947;28;20065;-89
2022/01/31 01:35:31;;;;;;;5.03;1.52;;;7.90;90.80;;;;;;4957071;28;20481;-90
2022/01/31 01:37:59;;;;;;;10.00;1.90;;;7.90;91.00;;;;;;4947585;28;20599;-89
2022/01/31 01:40:24;;;;;;;5.43;1.60;;;7.80;91.10;;;;;;4970781;28;20030;-90
2022/01/31 01:42:50;;;;;;;5.35;1.40;;;7.80;91.20;;;;;;5000534;28;20026;-90
2022/01/31 01:45:16;;;;;;;10.07;1.90;;;7.80;91.30;;;;;;4955916;28;20220;-89
2022/01/31 01:47:41;;;;;;;5.30;1.48;;;7.70;91.40;;;;;;4960445;28;20472;-89
2022/01/31 01:50:07;;;;;;;7.23;1.70;;;7.80;91.50;;;;;;4966269;28;20250;-89
2022/01/31 01:52:33;;;;;;;6.75;1.50;;;7.70;91.60;;;;;;4951861;28;20432;-90
2022/01/31 01:55:00;;;;;;;5.43;1.20;;;7.70;91.70;;;;;;4941774;28;20038;-90
2022/01/31 01:57:27;;;;;;;5.07;1.60;;;7.70;91.80;;;;;;4954212;28;20031;-91
2022/01/31 01:59:57;;;;;;;5.72;1.40;;;7.70;91.90;;;;;;4992971;28;20058;-89
2022/01/31 02:02:22;;;;;;;6.00;1.40;;;7.70;92.00;;;;;;4963998;28;20062;-89
2022/01/31 02:04:49;;;;;;;4.33;1.53;;;7.70;92.10;;;;;;4941028;28;20120;-91
2022/01/31 02:07:14;;;;;;;5.82;1.50;;;7.80;92.30;;;;;;4964405;28;20633;-90
2022/01/31 02:09:44;;;;;;;5.33;1.57;;;7.80;92.50;;;;;;4947380;28;20036;-88
2022/01/31 02:12:11;;;;;;;7.18;1.40;;;7.80;92.50;;;;;;4991709;28;20323;-88
2022/01/31 02:14:37;;;;;;;3.80;1.30;;;7.80;92.50;;;;;;4989546;28;20030;-88
2022/01/31 02:17:03;;;;;;;9.05;1.48;;;7.80;92.60;;;;;;4941976;28;20019;-88
2022/01/31 02:19:29;;;;;;;4.93;1.50;;;7.80;92.70;;;;;;4961648;28;20039;-88
2022/01/31 02:21:55;;;;;;;4.30;1.30;;;7.90;92.80;;;;;;4984107;28;20018;-91
2022/01/31 02:24:21;;;;;;;5.72;1.40;;;7.80;92.80;;;;;;4947162;28;20035;-89
2022/01/31 02:26:48;;;;;;;3.22;1.10;;;7.90;92.90;;;;;;4972849;28;20027;-88
2022/01/31 02:29:14;;;;;;;3.53;1.13;;;7.90;93.00;;;;;;4990808;28;20027;-88
2022/01/31 02:31:44;;;;;;;4.88;1.73;;;7.90;93.00;;;;;;4958844;28;20473;-89
2022/01/31 02:34:10;;;;;;;4.93;1.40;;;7.90;93.20;;;;;;4983446;28;20260;-88
2022/01/31 02:36:36;;;;;;;3.92;1.10;;;7.90;93.20;;;;;;4959941;28;20038;-88
2022/01/31 02:39:02;;;;;;;3.57;1.23;;;8.00;93.30;;;;;;4960018;28;20061;-87
2022/01/31 02:41:29;;;;;;;3.03;1.30;;;7.90;93.30;;;;;;4960548;28;20069;-89
2022/01/31 02:43:54;;;;;;;4.30;1.42;;;8.00;93.40;;;;;;4986397;28;20027;-90
2022/01/31 02:46:26;;;;;;;2.65;1.10;;;8.00;93.40;;;;;;4965182;28;20480;-88
2022/01/31 02:48:54;;;;;;;2.30;1.00;;;8.00;93.40;;;;;;4958258;28;20074;-88
2022/01/31 02:51:25;;;;;;;2.80;1.13;;;8.00;93.80;;;;;;4969418;28;20151;-89
2022/01/31 02:53:51;;;;;;;3.55;1.00;;;8.10;93.50;;;;;;4997589;28;20019;-90
2022/01/31 02:56:17;;;;;;;2.80;1.17;;;8.10;93.50;;;;;;4945756;28;20677;-89
2022/01/31 02:58:43;;;;;;;2.90;1.10;;;8.10;93.60;;;;;;4988578;28;20030;-88
2022/01/31 03:01:08;;;;;;;3.60;1.50;;;8.10;93.60;;;;;;4989491;28;20281;-88
2022/01/31 03:03:34;;;;;;;2.93;1.10;;;8.20;93.70;;;;;;4994944;28;20557;-87
2022/01/31 03:05:59;;;;;;;2.58;1.00;;;8.20;93.70;;;;;;4964608;28;20028;-88
2022/01/31 03:08:25;;;;;;;3.13;1.60;;;8.20;93.80;;;;;;4964390;28;20442;-89
2022/01/31 03:10:52;;;;;;;2.33;1.10;;;8.20;93.80;;;;;;4982945;28;20085;-88
2022/01/31 03:13:19;;;;;;;2.33;1.20;;;8.20;93.90;;;;;;4981687;28;20022;-89
2022/01/31 03:15:45;;;;;;;4.90;1.27;;;8.20;93.90;;;;;;4968791;28;20059;-88
2022/01/31 03:18:10;;;;;;;3.15;1.35;;;8.30;94.00;;;;;;4958756;28;20054;-90
2022/01/31 03:20:36;;;;;;;2.63;1.00;;;8.30;94.00;;;;;;4965193;28;20477;-89
2022/01/31 03:23:02;;;;;;;2.95;1.00;;;8.30;94.00;;;;;;4981222;28;20468;-86
2022/01/31 03:25:28;;;;;;;5.35;1.27;;;8.40;94.10;;;;;;4964391;28;20042;-87
2022/01/31 03:27:55;;;;;;;2.23;1.10;;;8.40;94.10;;;;;;4968138;28;20244;-85
2022/01/31 03:30:23;;;;;;;2.05;1.00;;;8.40;94.10;;;;;;4986907;28;20475;-85
2022/01/31 03:32:49;;;;;;;2.17;1.10;;;8.50;94.10;;;;;;4989768;28;20042;-86
2022/01/31 03:35:16;;;;;;;4.18;1.33;;;8.50;94.10;;;;;;4959919;28;20120;-87
2022/01/31 03:37:43;;;;;;;3.85;1.20;;;8.50;94.10;;;;;;4953632;28;20378;-86
2022/01/31 03:40:09;;;;;;;4.03;1.20;;;8.60;94.10;;;;;;4944183;28;20030;-86
2022/01/31 03:42:37;;;;;;;3.42;1.08;;;8.50;94.10;;;;;;4970020;28;20114;-86
2022/01/31 03:45:04;;;;;;;4.80;1.10;;;8.60;94.10;;;;;;4988965;28;20484;-85
2022/01/31 03:47:30;;;;;;;3.15;1.10;;;8.60;94.00;;;;;;4938532;28;20027;-86
2022/01/31 03:49:56;;;;;;;4.70;0.97;;;8.60;94.00;;;;;;4958643;28;20030;-87
2022/01/31 03:52:21;;;;;;;2.20;0.90;;;8.60;94.00;;;;;;4937454;28;20320;-86
2022/01/31 03:54:47;;;;;;;3.60;0.93;;;8.70;94.00;;;;;;4948866;28;20037;-86
2022/01/31 03:57:13;;;;;;;3.47;0.93;;;8.70;94.00;;;;;;4960112;28;20599;-87
2022/01/31 03:59:39;;;;;;;2.42;0.85;;;8.70;93.90;;;;;;4949360;28;20019;-86
2022/01/31 04:02:06;;;;;;;5.00;1.23;;;8.70;93.70;;;;;;4965620;28;20367;-86
2022/01/31 04:04:33;;;;;;;4.68;1.17;;;8.70;93.70;;;;;;4959961;28;20034;-88
2022/01/31 04:06:59;;;;;;;3.67;1.10;;;8.70;93.50;;;;;;4966659;28;20404;-86
2022/01/31 04:09:25;;;;;;;5.23;0.80;;;8.80;93.50;;;;;;4974235;28;20273;-86
2022/01/31 04:11:50;;;;;;;3.42;0.80;;;8.70;93.30;;;;;;4959792;28;20030;-86
2022/01/31 04:14:16;;;;;;;2.60;0.80;;;8.70;93.10;;;;;;4941899;28;20050;-86
2022/01/31 04:16:41;;;;;;;3.58;0.85;;;8.70;93.00;;;;;;4959642;28;20031;-87
2022/01/31 04:19:07;;;;;;;1.40;0.80;;;8.60;92.90;;;;;;4946884;28;20184;-86
2022/01/31 04:21:33;;;;;;;3.73;0.80;;;8.60;92.90;;;;;;4962850;28;20038;-86
2022/01/31 04:23:58;;;;;;;4.28;1.05;;;8.60;92.90;;;;;;4947016;28;20034;-88
2022/01/31 04:26:32;;;;;;;2.90;0.70;;;8.50;92.80;;;;;;4960144;28;20344;-88
2022/01/31 04:29:05;;;;;;;2.38;0.73;;;8.50;92.80;;;;;;4950954;28;20489;-86
2022/01/31 04:31:40;;;;;;;2.20;0.80;;;8.50;92.70;;;;;;4969521;28;20172;-85
2022/01/31 04:34:06;;;;;;;4.35;1.00;;;8.40;92.60;;;;;;4934375;28;20121;-86
2022/01/31 04:36:31;;;;;;;2.25;0.70;;;8.40;92.60;;;;;;4989838;28;20109;-89
2022/01/31 04:38:57;;;;;;;3.20;1.13;;;8.30;92.60;;;;;;4949540;28;20042;-90
2022/01/31 04:41:23;;;;;;;6.15;0.95;;;8.30;92.80;;;;;;4959911;28;20043;-89
2022/01/31 04:43:50;;;;;;;4.10;0.83;;;8.30;92.90;;;;;;4962644;28;20035;-89
2022/01/31 04:46:16;;;;;;;4.78;0.90;;;8.30;93.00;;;;;;4968732;28;20031;-89
2022/01/31 04:48:45;;;;;;;3.67;1.02;;;8.30;93.00;;;;;;4971691;28;20499;-89
2022/01/31 04:51:12;;;;;;;5.28;1.00;;;8.30;93.10;;;;;;4963353;28;20609;-91
2022/01/31 04:53:38;;;;;;;3.97;0.90;;;8.40;93.00;;;;;;4978625;28;20022;-88
2022/01/31 04:56:05;;;;;;;3.65;0.63;;;8.40;93.00;;;;;;4948030;28;20054;-89
2022/01/31 04:58:32;;;;;;;3.28;0.90;;;8.40;93.00;;;;;;4963813;28;20411;-89
2022/01/31 05:00:58;;;;;;;2.83;0.80;;;8.40;93.00;;;;;;4943294;28;20517;-90
2022/01/31 05:03:23;;;;;;;4.50;0.80;;;8.40;93.00;;;;;;4947332;28;20023;-90
2022/01/31 05:05:49;;;;;;;4.05;0.88;;;8.40;92.80;;;;;;4944516;28;20386;-91
2022/01/31 05:08:17;;;;;;;4.20;0.70;;;8.40;92.90;;;;;;4957893;28;20283;-89
2022/01/31 05:10:45;;;;;;;3.27;0.83;;;8.40;93.00;;;;;;4983306;28;20047;-90
2022/01/31 05:13:12;;;;;;;5.75;0.90;;;8.50;93.10;;;;;;4959755;28;20359;-89
2022/01/31 05:15:38;;;;;;;2.97;0.80;;;8.40;92.80;;;;;;4980523;28;20042;-87
2022/01/31 05:18:04;;;;;;;5.50;0.70;;;8.50;93.00;;;;;;4961993;28;20047;-87
2022/01/31 05:20:30;;;;;;;6.43;1.13;;;8.50;93.10;;;;;;4954186;28;20027;-87
2022/01/31 05:22:55;;;;;;;4.25;0.90;;;8.50;93.00;;;;;;4952701;28;20035;-88
2022/01/31 05:25:21;;;;;;;10.93;2.07;;;8.50;93.10;;;;;;4954907;28;20507;-86
2022/01/31 05:27:47;;;;;;;3.63;0.85;;;8.60;92.90;;;;;;4957372;28;20035;-87
2022/01/31 05:30:12;;;;;;;2.33;0.93;;;8.60;93.00;;;;;;4977703;28;20053;-87
2022/01/31 05:32:38;;;;;;;3.45;0.80;;;8.60;93.30;;;;;;4955361;28;20454;-86
2022/01/31 05:35:05;;;;;;;3.20;0.80;;;8.60;93.00;;;;;;4947423;28;20061;-88
2022/01/31 05:37:32;;;;;;;6.32;1.15;;;8.60;92.90;;;;;;4976250;28;20038;-88
2022/01/31 05:39:57;;;;;;;3.75;0.77;;;8.60;92.90;;;;;;4953384;28;20041;-86
2022/01/31 05:42:23;;;;;;;5.70;1.07;;;8.70;93.00;;;;;;4948668;28;20027;-87
2022/01/31 05:44:49;;;;;;;5.72;1.05;;;8.70;92.90;;;;;;4964023;28;20026;-87
2022/01/31 05:47:15;;;;;;;9.63;1.10;;;8.70;92.90;;;;;;4948452;28;20219;-87
2022/01/31 05:49:41;;;;;;;8.82;1.48;;;8.70;92.50;;;;;;4958511;28;20019;-87
2022/01/31 05:52:08;;;;;;;3.00;0.70;;;8.70;92.40;;;;;;4952686;28;20026;-86
2022/01/31 05:54:38;;;;;;;3.20;0.77;;;8.70;92.50;;;;;;4976067;28;20022;-86
2022/01/31 05:57:05;;;;;;;4.63;0.80;;;8.70;92.30;;;;;;4948597;28;20016;-87
2022/01/31 05:59:31;;;;;;;4.32;1.20;;;8.80;92.20;;;;;;4965492;28;20026;-87
2022/01/31 06:01:58;;;;;;;4.95;1.35;;;8.70;92.30;;;;;;4943064;28;20045;-85
2022/01/31 06:04:24;;;;;;;3.60;0.80;;;8.70;92.10;;;;;;4967740;28;20030;-86
2022/01/31 06:06:50;;;;;;;2.53;0.50;;;8.80;92.30;;;;;;4954794;28;20034;-87
2022/01/31 06:09:16;;;;;;;6.68;1.02;;;8.80;92.40;;;;;;4947057;28;20037;-87
2022/01/31 06:11:42;;;;;;;5.00;1.20;;;8.80;92.40;;;;;;4956429;28;20511;-86
2022/01/31 06:14:09;;;;;;;4.77;0.97;;;8.80;92.30;;;;;;4965298;28;20285;-87
2022/01/31 06:16:35;;;;;;;3.67;0.95;;;8.80;92.10;;;;;;4978579;28;20731;-87
2022/01/31 06:19:01;;;;;;;4.50;1.10;;;8.80;92.30;;;;;;4964774;28;20051;-87
2022/01/31 06:21:27;;;;;;;3.50;0.70;;;8.80;92.40;;;;;;4953877;28;20867;-88
2022/01/31 06:23:53;;;;;;;3.33;0.90;;;8.80;92.50;;;;;;4942413;28;20950;-88
2022/01/31 06:26:21;;;;;;;2.92;0.77;;;8.80;92.40;;;;;;4961247;28;20259;-87
2022/01/31 06:28:48;;;;;;;2.08;0.60;;;8.80;92.40;;;;;;4973228;28;20106;-87
2022/01/31 06:31:14;;;;;;;2.10;0.70;;;8.80;92.40;;;;;;4963366;28;20542;-88
2022/01/31 06:33:39;;;;;;;2.85;0.90;;;8.80;92.40;;;;;;4941597;28;20027;-87
2022/01/31 06:36:05;;;;;;;5.23;0.90;;;8.80;92.00;;;;;;4965180;28;20515;-87
2022/01/31 06:38:31;;;;;;;4.65;0.98;;;8.80;92.30;;;;;;4942432;28;21100;-87
2022/01/31 06:40:57;;;;;;;3.80;0.80;;;8.80;92.10;;;;;;4950121;28;20077;-87
2022/01/31 06:43:23;;;;;;;7.85;1.45;;;8.80;92.20;;;;;;4950647;28;20109;-87
2022/01/31 06:45:49;;;;;;;4.40;0.80;;;8.80;92.00;;;;;;4945507;28;20447;-87
2022/01/31 06:48:15;;;;;;;7.13;1.02;;;8.80;92.10;;;;;;4948603;28;20026;-88
2022/01/31 06:50:40;;;;;;;5.20;0.90;;;8.80;92.20;;;;;;4952149;28;20030;-89
2022/01/31 06:53:06;;;;;;;3.63;0.70;;;8.90;92.30;;;;;;4966453;28;20034;-88
2022/01/31 06:55:34;;;;;;;4.65;0.90;;;8.80;92.20;;;;;;4945691;28;20046;-89
2022/01/31 06:58:01;;;;;;;5.33;1.00;;;8.80;92.20;;;;;;4972094;28;20039;-88
2022/01/31 07:00:26;;;;;;;4.50;1.08;;;8.80;92.10;;;;;;4947668;28;20054;-89
2022/01/31 07:02:52;;;;;;;3.67;0.63;;;8.80;92.10;;;;;;4959151;28;20304;-89
2022/01/31 07:05:18;;;;;;;3.63;0.80;;;8.80;92.10;;;;;;4912344;28;20361;-88
2022/01/31 07:07:44;;;;;;;5.15;1.00;;;8.80;92.00;;;;;;4950032;28;20027;-89
2022/01/31 07:10:11;;;;;;;3.70;0.90;;;8.80;92.00;;;;;;4950781;28;20188;-88
2022/01/31 07:12:39;;;;;;;5.13;1.00;;;8.80;91.80;;;;;;4956387;28;20027;-89
2022/01/31 07:15:10;;;;;;;3.93;0.90;;;8.80;91.90;;;;;;4956597;28;20283;-89
2022/01/31 07:17:36;;;;;;;4.25;0.90;;;8.80;91.60;;;;;;4978616;28;20430;-89
2022/01/31 07:20:10;;;;;;;2.90;0.93;;;8.80;91.70;;;;;;4944993;28;20593;-89
2022/01/31 07:22:38;;;;;;;3.50;0.70;;;8.80;91.80;;;;;;4971292;28;20042;-89
2022/01/31 07:25:08;;;;;;;3.72;1.00;;;8.80;91.90;;;;;;4943802;28;20042;-86
2022/01/31 07:27:35;;;;;;;3.10;0.80;;;8.80;91.80;;;;;;4977602;28;20046;-87
2022/01/31 07:30:01;;;;;;;3.42;0.77;;;8.80;91.90;;;;;;4966650;28;20042;-86
2022/01/31 07:32:28;;;;;;;2.08;0.65;;;8.80;92.00;;;;;;4975643;28;20740;-86
2022/01/31 07:34:55;;;;;;;4.00;0.95;;;8.80;91.90;;;;;;4952546;28;20037;-85
2022/01/31 07:37:25;;;;;;;3.60;0.80;;;8.80;91.90;;;;;;4957315;28;20229;-87
2022/01/31 07:39:51;;;;;;;4.00;1.17;;;8.80;91.10;;;;;;4952883;28;20038;-86
2022/01/31 07:42:18;;;;;;;4.97;1.10;;;8.80;91.80;;;;;;4934898;28;20524;-87
2022/01/31 07:44:44;;;;;;;4.05;0.90;;;8.80;91.70;;;;;;4985659;28;20465;-86
2022/01/31 07:47:10;;;;;;;5.18;1.00;;;8.80;91.80;;;;;;4959307;28;20574;-86
2022/01/31 07:49:36;;;;;;;5.90;1.00;;;8.80;91.70;;;;;;4960067;28;20041;-86
2022/01/31 07:52:02;;;;;;;3.63;0.80;;;8.80;91.70;;;;;;4945067;28;20408;-86
2022/01/31 07:54:28;;;;;;;1.83;0.80;;;8.80;91.70;;;;;;4982980;28;20267;-87
2022/01/31 07:56:56;;;;;;;3.97;1.27;;;8.90;92.00;;;;;;4946467;28;20034;-87
2022/01/31 07:59:22;;;;;;;3.77;1.00;;;8.80;91.80;;;;;;4950768;28;20310;-87
2022/01/31 08:01:47;;;;;;;2.85;0.80;;;8.90;91.70;;;;;;4942092;28;20031;-86
2022/01/31 08:04:13;;;;;;;3.53;1.00;;;8.90;92.00;;;;;;4954134;28;20891;-87
2022/01/31 08:06:39;;;;;;;2.08;0.70;;;8.80;92.10;;;;;;4935888;28;20035;-85
2022/01/31 08:09:04;;;;;;;3.47;0.90;;;8.90;92.20;;;;;;4955133;28;20302;-88
2022/01/31 08:11:33;;;;;;;4.05;0.90;;;8.90;92.00;;;;;;4959194;28;20031;-87
2022/01/31 08:14:02;;;;;;;4.55;0.95;;;8.90;92.10;;;;;;4960185;28;20507;-86
2022/01/31 08:16:28;;;;;;;5.80;1.42;;;8.90;92.20;;;;;;4954395;28;20121;-87
2022/01/31 08:18:53;;;;;;;4.60;1.00;;;8.90;92.00;;;;;;4967007;28;20276;-85
2022/01/31 08:21:25;;;;;;;3.08;0.80;;;8.90;91.90;;;;;;4961594;28;20042;-86
2022/01/31 08:23:52;;;;;;;6.10;1.00;;;8.90;91.80;;;;;;4956617;28;20027;-87
2022/01/31 08:26:19;;;;;;;3.67;0.93;;;8.90;92.00;;;;;;4969066;28;20037;-88
2022/01/31 08:28:55;;;;;;;5.25;1.08;;;8.90;91.90;;;;;;4943700;28;20500;-89
2022/01/31 08:31:33;;;;;;;5.15;1.20;;;8.90;91.80;;;;;;4941384;28;20162;-87
2022/01/31 08:36:30;;;;;;;2.33;0.80;;;8.90;91.80;;;;;;4992893;28;20034;-88
2022/01/31 08:38:56;;;;;;;4.25;1.02;;;8.90;91.60;;;;;;4959265;28;20648;-88
2022/01/31 08:41:24;;;;;;;6.22;0.98;;;8.90;92.00;;;;;;4963331;28;20453;-87
2022/01/31 08:43:50;;;;;;;3.60;0.90;;;8.90;91.80;;;;;;4937299;28;20027;-89
2022/01/31 08:46:16;;;;;;;3.50;0.80;;;8.90;91.70;;;;;;4951271;28;20038;-87
2022/01/31 08:48:43;;;;;;;3.63;0.70;;;8.90;91.90;;;;;;4945634;28;20496;-85
2022/01/31 08:51:11;;;;;;;4.35;0.70;;;8.90;91.80;;;;;;4991541;28;20500;-86
2022/01/31 08:53:37;;;;;;;5.15;1.10;;;8.90;91.90;;;;;;4940930;28;20055;-85
2022/01/31 08:56:06;;;;;;;7.00;1.15;;;9.00;92.40;;;;;;4974008;28;20516;-87
2022/01/31 08:58:33;;;;;;;3.03;0.90;;;9.00;91.60;;;;;;4981539;28;20027;-85
2022/01/31 09:01:04;;;;;;;3.57;0.90;;;9.00;92.20;;;;;;4953587;28;20431;-86
2022/01/31 09:06:05;;;;;;;6.15;1.38;;;9.00;92.00;;;;;;4987684;28;20049;-86
2022/01/31 09:08:31;;;;;;;8.05;1.40;;;9.00;92.40;;;;;;4975213;28;20029;-87
2022/01/31 09:10:57;;;;;;;3.03;0.90;;;9.00;92.00;;;;;;4953060;28;20038;-86
2022/01/31 09:13:23;;;;;;;5.07;1.03;;;9.00;91.90;;;;;;4943218;28;20027;-85
2022/01/31 09:15:49;;;;;;;3.90;1.00;;;9.10;92.00;;;;;;4954154;28;20023;-85
2022/01/31 09:18:14;;;;;;;2.63;0.85;;;9.10;92.00;;;;;;4944490;28;20534;-85
2022/01/31 09:20:40;;;;;;;5.00;1.00;;;9.10;92.30;;;;;;4955672;28;20100;-86
2022/01/31 09:23:06;;;;;;;3.78;0.88;;;9.10;92.20;;;;;;4969193;28;20034;-86
2022/01/31 09:25:32;;;;;;;3.80;0.80;;;9.20;92.60;;;;;;4945350;28;20352;-85
2022/01/31 09:28:00;;;;;;;4.40;0.80;;;9.20;92.20;;;;;;4962719;28;20038;-86
2022/01/31 09:30:27;;;;;;;4.03;0.98;;;9.20;92.20;;;;;;4960940;28;20110;-86
2022/01/31 09:32:57;;;;;;;4.95;0.85;;;9.20;92.30;;;;;;4980609;28;20023;-86
2022/01/31 09:35:25;;;;;;;4.18;1.00;;;9.30;92.00;;;;;;4973097;28;20039;-87
2022/01/31 09:37:50;;;;;;;7.90;1.20;;;9.30;92.40;;;;;;4977770;28;20157;-85
2022/01/31 09:40:19;;;;;;;8.52;1.20;;;9.40;92.20;;;;;;4948806;28;20027;-85
2022/01/31 09:48:38;;;;;;;2.90;0.80;;;9.30;91.70;;;;;;4938626;28;20039;-87
2022/01/31 09:51:14;;;;;;;5.57;1.20;;;9.30;92.00;;;;;;4968432;28;20619;-88
2022/01/31 09:53:43;;;;;;;5.75;1.13;;;9.20;92.00;;;;;;4972614;28;20023;-86
2022/01/31 09:56:12;;;;;;;5.93;1.02;;;9.20;92.00;;;;;;4951053;28;20031;-86
2022/01/31 09:58:39;;;;;;;5.35;1.02;;;9.20;91.80;;;;;;4944214;28;20220;-87
2022/01/31 10:01:07;;;;;;;8.67;1.00;;;9.20;91.80;;;;;;4970365;28;20030;-86
2022/01/31 10:03:42;;;;;;;6.20;1.20;;;9.20;92.10;;;;;;4934557;28;20027;-86
2022/01/31 10:06:19;;;;;;;3.60;1.10;;;9.20;92.30;;;;;;4972742;28;20121;-86
2022/01/31 10:08:45;;;;;;;2.08;0.70;;;9.30;91.90;;;;;;4961449;28;20026;-87
2022/01/31 10:11:27;;;;;;;2.73;0.87;;;9.30;92.60;;;;;;4952293;28;20064;-86
2022/01/31 10:16:45;;;;;;;4.60;1.15;;;9.60;93.80;;;;;;4968280;28;22383;-86
2022/01/31 10:19:11;;;;;;;5.28;1.10;;;9.80;93.30;;;;;;4983557;28;20034;-86
2022/01/31 10:22:02;;;;;;;4.30;0.80;;;9.90;93.10;;;;;;4982554;28;20027;-86
2022/01/31 10:24:30;;;;;;;5.07;1.30;;;10.10;91.70;;;;;;4985549;28;20144;-86
2022/01/31 10:26:56;;;;;;;7.85;1.20;;;10.10;93.00;;;;;;4946965;28;20523;-86
2022/01/31 10:29:25;;;;;;;4.15;1.13;;;10.20;93.00;;;;;;4961022;28;20484;-86
2022/01/31 10:32:05;;;;;;;5.13;1.00;;;10.30;92.10;;;;;;4956509;28;20105;-86
2022/01/31 10:34:35;;;;;;;3.55;1.00;;;10.30;91.70;;;;;;4942109;28;20560;-86
2022/01/31 10:37:06;;;;;;;4.50;1.10;;;10.40;92.30;;;;;;4973800;28;20041;-86
2022/01/31 10:54:26;;;;;;;3.45;0.65;;;10.40;89.50;;;;;;4988886;28;20031;-86
2022/01/31 10:56:57;;;;;;;3.83;0.80;;;10.20;90.40;;;;;;4981932;28;20030;-87
2022/01/31 10:59:33;;;;;;;4.35;0.70;;;10.00;90.80;;;;;;4957595;28;20022;-87
2022/01/31 11:02:01;;;;;;;4.03;0.80;;;9.90;91.10;;;;;;4954264;28;20407;-88
2022/01/31 11:04:34;;;;;;;3.50;0.80;;;9.70;91.10;;;;;;4957084;28;20023;-87
2022/01/31 11:07:10;;;;;;;4.00;1.00;;;9.60;91.20;;;;;;4968921;28;20097;-87
2022/01/31 11:09:36;;;;;;;5.78;1.25;;;9.50;91.40;;;;;;4963982;28;20037;-87
2022/01/31 11:12:03;;;;;;;7.65;1.20;;;9.40;91.70;;;;;;4958139;28;20384;-87
2022/01/31 11:14:29;;;;;;;5.90;1.13;;;9.40;91.70;;;;;;4943404;28;22117;-87
2022/01/31 11:16:55;;;;;;;5.77;1.17;;;9.30;91.80;;;;;;4962456;28;20122;-86
2022/01/31 11:19:33;;;;;;;4.70;1.30;;;9.30;92.00;;;;;;4943325;28;20055;-87
2022/01/31 11:22:06;;;;;;;3.85;0.82;;;9.30;91.90;;;;;;4984227;28;20035;-86
2022/01/31 11:24:47;;;;;;;6.37;1.33;;;9.20;91.70;;;;;;4964542;28;20236;-86
2022/01/31 11:27:16;;;;;;;8.65;1.50;;;9.20;91.40;;;;;;4938870;28;20508;-87
2022/01/31 11:29:55;;;;;;;6.90;1.58;;;9.20;91.70;;;;;;4946355;28;20049;-87
2022/01/31 11:32:22;;;;;;;6.93;1.33;;;9.20;91.80;;;;;;4977464;28;20390;-86
2022/01/31 11:34:48;;;;;;;5.38;0.95;;;9.20;92.00;;;;;;4948280;28;20022;-86
2022/01/31 11:37:16;;;;;;;10.13;1.47;;;9.20;92.20;;;;;;4947139;28;20339;-88
2022/01/31 11:39:45;;;;;;;6.85;1.45;;;9.20;92.00;;;;;;4947552;28;20148;-87
2022/01/31 11:42:13;;;;;;;6.47;1.17;;;9.20;91.80;;;;;;4950882;28;20304;-88
2022/01/31 11:44:48;;;;;;;6.00;1.00;;;9.20;91.90;;;;;;4976000;28;20070;-87
2022/01/31 11:47:14;;;;;;;7.25;1.13;;;9.20;91.80;;;;;;4950396;28;20061;-87
2022/01/31 11:49:52;;;;;;;8.90;1.40;;;9.20;91.80;;;;;;4961548;28;20023;-86
2022/01/31 11:52:19;;;;;;;7.28;1.02;;;9.20;91.30;;;;;;4947772;28;20288;-86
2022/01/31 11:54:50;;;;;;;9.77;1.30;;;9.20;92.00;;;;;;4954812;28;20022;-87
2022/01/31 11:57:22;;;;;;;4.38;1.08;;;9.30;92.00;;;;;;4953008;28;20232;-87
2022/01/31 12:00:03;;;;;;;6.05;1.10;;;9.30;91.60;;;;;;4995276;28;20547;-87
2022/01/31 12:02:31;;;;;;;8.40;1.20;;;9.30;91.70;;;;;;4947640;28;20035;-86
2022/01/31 12:05:05;;;;;;;6.63;1.15;;;9.30;91.90;;;;;;4992501;28;20480;-86
2022/01/31 12:07:44;;;;;;;5.35;1.23;;;9.30;91.70;;;;;;4957370;28;20377;-87
2022/01/31 12:10:23;;;;;;;8.25;1.25;;;9.40;91.20;;;;;;4955107;28;20473;-86
2022/01/31 12:12:57;;;;;;;7.65;1.00;;;9.40;91.60;;;;;;4970729;28;20018;-86
2022/01/31 12:23:49;;;;;;;8.90;1.80;;;9.40;91.40;;;;;;4978100;28;20061;-87
2022/01/31 12:26:47;;;;;;;8.50;1.40;;;9.50;91.60;;;;;;4982643;28;20058;-87
2022/01/31 12:29:15;;;;;;;4.60;1.10;;;9.50;90.90;;;;;;4932007;28;20043;-86
2022/01/31 12:31:44;;;;;;;6.45;1.13;;;9.40;91.70;;;;;;4960019;28;20026;-86
2022/01/31 12:34:21;;;;;;;8.07;1.65;;;9.50;91.80;;;;;;4962217;28;20126;-88
2022/01/31 12:36:50;;;;;;;4.00;1.02;;;9.50;91.40;;;;;;4988621;28;20243;-87
2022/01/31 12:39:28;;;;;;;8.63;1.30;;;9.50;91.70;;;;;;4963152;28;20081;-86
2022/01/31 12:42:04;;;;;;;8.03;1.43;;;9.50;91.20;;;;;;4954395;28;20308;-85
2022/01/31 12:44:32;;;;;;;11.45;1.52;;;9.40;91.50;;;;;;4952484;28;20125;-85
2022/01/31 12:47:09;;;;;;;6.88;1.20;;;9.40;91.60;;;;;;4989800;28;20575;-85
2022/01/31 12:49:36;;;;;;;8.98;1.40;;;9.40;91.30;;;;;;4944987;28;20465;-85
2022/01/31 12:52:05;;;;;;;8.07;1.50;;;9.40;91.40;;;;;;4981720;28;20220;-86
2022/01/31 12:54:32;;;;;;;6.47;1.30;;;9.30;91.40;;;;;;4930358;28;20373;-88
2022/01/31 12:57:11;;;;;;;4.10;1.00;;;9.40;91.70;;;;;;4972033;28;20035;-87
2022/01/31 12:59:39;;;;;;;6.85;1.20;;;9.30;91.50;;;;;;4954746;28;20411;-85
2022/01/31 13:02:10;;;;;;;8.77;1.58;;;9.40;91.80;;;;;;4965563;28;20561;-86
2022/01/31 13:04:36;;;;;;;9.43;1.80;;;9.30;91.40;;;;;;4949805;28;20026;-87
2022/01/31 13:07:04;;;;;;;8.23;1.40;;;9.40;91.80;;;;;;4996182;28;20350;-86
2022/01/31 13:09:34;;;;;;;9.57;1.60;;;9.40;91.80;;;;;;4953683;28;20523;-85
2022/01/31 13:12:04;;;;;;;7.85;1.80;;;9.40;91.70;;;;;;4973574;28;20031;-85
2022/01/31 13:14:32;;;;;;;10.10;1.33;;;9.40;91.80;;;;;;4960169;28;20026;-85
2022/01/31 13:19:27;;;;;;;7.77;1.10;;;9.40;91.60;;;;;;4992027;28;20062;-85
2022/01/31 13:21:55;;;;;;;7.30;1.65;;;9.40;91.50;;;;;;4980351;28;20231;-86
2022/01/31 13:24:33;;;;;;;5.80;1.33;;;9.40;91.60;;;;;;4981040;28;20031;-86
2022/01/31 13:26:59;;;;;;;10.75;1.90;;;9.40;90.90;;;;;;4965443;28;21022;-85
2022/01/31 13:29:34;;;;;;;8.93;1.80;;;9.40;91.00;;;;;;4965470;28;20023;-86
2022/01/31 13:32:23;;;;;;;9.33;1.43;;;9.40;91.00;;;;;;4937281;28;20031;-86
2022/01/31 13:34:52;;;;;;;9.07;1.50;;;9.30;90.70;;;;;;4953311;28;20066;-85
2022/01/31 13:37:38;;;;;;;8.73;1.33;;;9.40;91.20;;;;;;4964901;28;20396;-87
2022/01/31 13:40:23;;;;;;;4.60;1.00;;;9.30;90.80;;;;;;4957323;28;20089;-85
2022/01/31 13:42:57;;;;;;;6.95;1.40;;;9.30;90.70;;;;;;4988821;28;20046;-86